sensor_id;sensor_type;location;lat;lon;timestamp;temperature;humidity
52513;DHT22;38422;53.172;6.974;2022-11-22T00:02:07;2.60;99.90
52513;DHT22;38422;53.172;6.974;2022-11-22T00:04:32;2.60;99.90
52513;DHT22;38422;53.172;6.974;2022-11-22T00:06:58;2.60;99.90
52513;DHT22;38422;53.172;6.974;2022-11-22T00:09:24;2.60;99.90
52513;DHT22;38422;53.172;6.974;2022-11-22T00:11:50;2.60;99.90
52513;DHT22;38422;53.172;6.974;2022-11-22T00:14:16;2.60;99.90
52513;DHT22;38422;53.172;6.974;2022-11-22T00:16:41;2.60;99.90
52513;DHT22;38422;53.172;6.974;2022-11-22T00:19:08;2.60;99.90
52513;DHT22;38422;53.172;6.974;2022-11-22T00:21:34;2.70;99.90
52513;DHT22;38422;53.172;6.974;2022-11-22T00:23:59;2.70;99.90
52513;DHT22;38422;53.172;6.974;2022-11-22T00:26:25;2.60;99.90
52513;DHT22;38422;53.172;6.974;2022-11-22T00:28:51;2.60;99.90
52513;DHT22;38422;53.172;6.974;2022-11-22T00:31:17;2.60;99.90
52513;DHT22;38422;53.172;6.974;2022-11-22T00:33:42;2.60;99.90
52513;DHT22;38422;53.172;6.974;2022-11-22T00:36:08;2.50;99.90
52513;DHT22;38422;53.172;6.974;2022-11-22T00:38:33;2.60;99.90
52513;DHT22;38422;53.172;6.974;2022-11-22T00:40:59;2.50;99.90
52513;DHT22;38422;53.172;6.974;2022-11-22T00:43:25;2.50;99.90
52513;DHT22;38422;53.172;6.974;2022-11-22T00:45:51;2.60;99.90
52513;DHT22;38422;53.172;6.974;2022-11-22T00:48:16;2.60;99.90
52513;DHT22;38422;53.172;6.974;2022-11-22T00:50:42;2.60;99.90
52513;DHT22;38422;53.172;6.974;2022-11-22T00:53:08;2.60;99.90
52513;DHT22;38422;53.172;6.974;2022-11-22T00:55:33;2.60;99.90
52513;DHT22;38422;53.172;6.974;2022-11-22T00:57:59;2.60;99.90
52513;DHT22;38422;53.172;6.974;2022-11-22T01:00:25;2.60;99.90
52513;DHT22;38422;53.172;6.974;2022-11-22T01:02:50;2.60;99.90
52513;DHT22;38422;53.172;6.974;2022-11-22T01:05:16;2.60;99.90
52513;DHT22;38422;53.172;6.974;2022-11-22T01:07:45;2.60;99.90
52513;DHT22;38422;53.172;6.974;2022-11-22T01:10:10;2.70;99.90
52513;DHT22;38422;53.172;6.974;2022-11-22T01:12:36;2.60;99.90
52513;DHT22;38422;53.172;6.974;2022-11-22T01:15:02;2.60;99.90
52513;DHT22;38422;53.172;6.974;2022-11-22T01:17:28;2.60;99.90
52513;DHT22;38422;53.172;6.974;2022-11-22T01:19:54;2.60;99.90
52513;DHT22;38422;53.172;6.974;2022-11-22T01:22:20;2.60;99.90
52513;DHT22;38422;53.172;6.974;2022-11-22T01:24:45;2.60;99.90
52513;DHT22;38422;53.172;6.974;2022-11-22T01:27:11;2.60;99.90
52513;DHT22;38422;53.172;6.974;2022-11-22T01:29:36;2.60;99.90
52513;DHT22;38422;53.172;6.974;2022-11-22T01:32:02;2.60;99.90
52513;DHT22;38422;53.172;6.974;2022-11-22T01:34:28;2.60;99.90
52513;DHT22;38422;53.172;6.974;2022-11-22T01:36:54;2.70;99.90
52513;DHT22;38422;53.172;6.974;2022-11-22T01:39:19;2.70;99.90
52513;DHT22;38422;53.172;6.974;2022-11-22T01:41:45;2.70;99.90
52513;DHT22;38422;53.172;6.974;2022-11-22T01:44:25;2.70;99.90
52513;DHT22;38422;53.172;6.974;2022-11-22T01:47:17;2.70;99.90
52513;DHT22;38422;53.172;6.974;2022-11-22T01:49:58;2.70;99.90
52513;DHT22;38422;53.172;6.974;2022-11-22T01:52:27;2.60;99.90
52513;DHT22;38422;53.172;6.974;2022-11-22T01:54:57;2.70;99.90
52513;DHT22;38422;53.172;6.974;2022-11-22T01:57:27;2.70;99.90
52513;DHT22;38422;53.172;6.974;2022-11-22T02:00:04;2.70;99.90
52513;DHT22;38422;53.172;6.974;2022-11-22T02:02:30;2.70;99.90
52513;DHT22;38422;53.172;6.974;2022-11-22T02:04:57;2.70;99.90
52513;DHT22;38422;53.172;6.974;2022-11-22T02:07:42;2.70;99.90
52513;DHT22;38422;53.172;6.974;2022-11-22T02:10:09;2.70;99.90
52513;DHT22;38422;53.172;6.974;2022-11-22T02:12:36;2.70;99.90
52513;DHT22;38422;53.172;6.974;2022-11-22T02:15:02;2.70;99.90
52513;DHT22;38422;53.172;6.974;2022-11-22T02:17:28;2.60;99.90
52513;DHT22;38422;53.172;6.974;2022-11-22T02:19:54;2.60;99.90
52513;DHT22;38422;53.172;6.974;2022-11-22T02:28:03;2.70;99.90
52513;DHT22;38422;53.172;6.974;2022-11-22T02:30:28;2.70;99.90
52513;DHT22;38422;53.172;6.974;2022-11-22T02:32:54;2.70;99.90
52513;DHT22;38422;53.172;6.974;2022-11-22T02:35:29;2.70;99.90
52513;DHT22;38422;53.172;6.974;2022-11-22T02:38:02;2.70;99.90
52513;DHT22;38422;53.172;6.974;2022-11-22T02:40:33;2.70;99.90
52513;DHT22;38422;53.172;6.974;2022-11-22T02:43:14;2.70;99.90
52513;DHT22;38422;53.172;6.974;2022-11-22T02:45:41;2.70;99.90
52513;DHT22;38422;53.172;6.974;2022-11-22T02:48:12;2.70;99.90
52513;DHT22;38422;53.172;6.974;2022-11-22T02:50:38;2.70;99.90
52513;DHT22;38422;53.172;6.974;2022-11-22T02:53:05;2.70;99.90
52513;DHT22;38422;53.172;6.974;2022-11-22T02:55:32;2.70;99.90
52513;DHT22;38422;53.172;6.974;2022-11-22T02:57:57;2.70;99.90
52513;DHT22;38422;53.172;6.974;2022-11-22T03:00:23;2.80;99.90
52513;DHT22;38422;53.172;6.974;2022-11-22T03:02:49;2.70;99.90
52513;DHT22;38422;53.172;6.974;2022-11-22T03:05:15;2.80;99.90
52513;DHT22;38422;53.172;6.974;2022-11-22T03:07:41;2.80;99.90
52513;DHT22;38422;53.172;6.974;2022-11-22T03:10:07;2.80;99.90
52513;DHT22;38422;53.172;6.974;2022-11-22T03:12:33;2.80;99.90
52513;DHT22;38422;53.172;6.974;2022-11-22T03:14:59;2.80;99.90
52513;DHT22;38422;53.172;6.974;2022-11-22T03:17:24;2.70;99.90
52513;DHT22;38422;53.172;6.974;2022-11-22T03:19:50;2.80;99.90
52513;DHT22;38422;53.172;6.974;2022-11-22T03:22:15;2.80;99.90
52513;DHT22;38422;53.172;6.974;2022-11-22T03:24:41;2.80;99.90
52513;DHT22;38422;53.172;6.974;2022-11-22T03:27:07;2.80;99.90
52513;DHT22;38422;53.172;6.974;2022-11-22T03:29:32;2.80;99.90
52513;DHT22;38422;53.172;6.974;2022-11-22T03:31:58;2.80;99.90
52513;DHT22;38422;53.172;6.974;2022-11-22T03:34:25;2.80;99.90
52513;DHT22;38422;53.172;6.974;2022-11-22T03:36:51;2.90;99.90
52513;DHT22;38422;53.172;6.974;2022-11-22T03:39:16;2.90;99.90
52513;DHT22;38422;53.172;6.974;2022-11-22T03:41:42;2.90;99.90
52513;DHT22;38422;53.172;6.974;2022-11-22T03:44:07;2.90;99.90
52513;DHT22;38422;53.172;6.974;2022-11-22T03:46:33;2.90;99.90
52513;DHT22;38422;53.172;6.974;2022-11-22T03:48:59;2.90;99.90
52513;DHT22;38422;53.172;6.974;2022-11-22T03:51:25;2.90;99.90
52513;DHT22;38422;53.172;6.974;2022-11-22T03:53:51;2.90;99.90
52513;DHT22;38422;53.172;6.974;2022-11-22T03:56:17;2.90;99.90
52513;DHT22;38422;53.172;6.974;2022-11-22T03:58:42;2.90;99.90
52513;DHT22;38422;53.172;6.974;2022-11-22T04:01:08;2.90;99.90
52513;DHT22;38422;53.172;6.974;2022-11-22T04:03:34;2.90;99.90
52513;DHT22;38422;53.172;6.974;2022-11-22T04:05:59;2.90;99.90
52513;DHT22;38422;53.172;6.974;2022-11-22T04:08:25;2.90;99.90
52513;DHT22;38422;53.172;6.974;2022-11-22T04:10:51;2.90;99.90
52513;DHT22;38422;53.172;6.974;2022-11-22T04:13:17;2.90;99.90
52513;DHT22;38422;53.172;6.974;2022-11-22T04:15:43;2.90;99.90
52513;DHT22;38422;53.172;6.974;2022-11-22T04:18:10;2.90;99.90
52513;DHT22;38422;53.172;6.974;2022-11-22T04:20:36;2.90;99.90
52513;DHT22;38422;53.172;6.974;2022-11-22T04:23:23;2.90;99.90
52513;DHT22;38422;53.172;6.974;2022-11-22T04:25:53;2.90;99.90
52513;DHT22;38422;53.172;6.974;2022-11-22T04:28:22;2.90;99.90
52513;DHT22;38422;53.172;6.974;2022-11-22T04:30:48;2.90;99.90
52513;DHT22;38422;53.172;6.974;2022-11-22T04:33:33;3.00;99.90
52513;DHT22;38422;53.172;6.974;2022-11-22T04:35:59;3.00;99.90
52513;DHT22;38422;53.172;6.974;2022-11-22T04:38:25;3.00;99.90
52513;DHT22;38422;53.172;6.974;2022-11-22T04:40:51;3.00;99.90
52513;DHT22;38422;53.172;6.974;2022-11-22T04:43:25;3.00;99.90
52513;DHT22;38422;53.172;6.974;2022-11-22T04:46:10;3.00;99.90
52513;DHT22;38422;53.172;6.974;2022-11-22T04:48:36;3.00;99.90
52513;DHT22;38422;53.172;6.974;2022-11-22T04:51:02;3.00;99.90
52513;DHT22;38422;53.172;6.974;2022-11-22T04:53:46;3.00;99.90
52513;DHT22;38422;53.172;6.974;2022-11-22T04:56:12;3.00;99.90
52513;DHT22;38422;53.172;6.974;2022-11-22T04:58:38;3.00;99.90
52513;DHT22;38422;53.172;6.974;2022-11-22T05:01:04;3.10;99.90
52513;DHT22;38422;53.172;6.974;2022-11-22T05:03:30;3.10;99.90
52513;DHT22;38422;53.172;6.974;2022-11-22T05:05:56;3.10;99.90
52513;DHT22;38422;53.172;6.974;2022-11-22T05:08:24;3.20;99.90
52513;DHT22;38422;53.172;6.974;2022-11-22T05:10:50;3.20;99.90
52513;DHT22;38422;53.172;6.974;2022-11-22T05:13:24;3.20;99.90
52513;DHT22;38422;53.172;6.974;2022-11-22T05:15:50;3.20;99.90
52513;DHT22;38422;53.172;6.974;2022-11-22T05:18:20;3.20;99.90
52513;DHT22;38422;53.172;6.974;2022-11-22T05:20:47;3.20;99.90
52513;DHT22;38422;53.172;6.974;2022-11-22T05:23:13;3.30;99.90
52513;DHT22;38422;53.172;6.974;2022-11-22T05:25:57;3.30;99.90
52513;DHT22;38422;53.172;6.974;2022-11-22T05:28:27;3.30;99.90
52513;DHT22;38422;53.172;6.974;2022-11-22T05:30:54;3.30;99.90
52513;DHT22;38422;53.172;6.974;2022-11-22T05:33:19;3.30;99.90
52513;DHT22;38422;53.172;6.974;2022-11-22T05:35:45;3.30;99.90
52513;DHT22;38422;53.172;6.974;2022-11-22T05:38:11;3.40;99.90
52513;DHT22;38422;53.172;6.974;2022-11-22T05:40:36;3.30;99.90
52513;DHT22;38422;53.172;6.974;2022-11-22T05:43:02;3.30;99.90
52513;DHT22;38422;53.172;6.974;2022-11-22T05:45:28;3.40;99.90
52513;DHT22;38422;53.172;6.974;2022-11-22T05:47:55;3.40;99.90
52513;DHT22;38422;53.172;6.974;2022-11-22T05:50:20;3.40;99.90
52513;DHT22;38422;53.172;6.974;2022-11-22T05:52:46;3.40;99.90
52513;DHT22;38422;53.172;6.974;2022-11-22T05:55:12;3.40;99.90
52513;DHT22;38422;53.172;6.974;2022-11-22T05:57:38;3.40;99.90
52513;DHT22;38422;53.172;6.974;2022-11-22T06:00:04;3.40;99.90
52513;DHT22;38422;53.172;6.974;2022-11-22T06:02:31;3.40;99.90
52513;DHT22;38422;53.172;6.974;2022-11-22T06:04:56;3.40;99.90
52513;DHT22;38422;53.172;6.974;2022-11-22T06:07:22;3.50;99.90
52513;DHT22;38422;53.172;6.974;2022-11-22T06:09:48;3.50;99.90
52513;DHT22;38422;53.172;6.974;2022-11-22T06:12:14;3.50;99.90
52513;DHT22;38422;53.172;6.974;2022-11-22T06:14:39;3.50;99.90
52513;DHT22;38422;53.172;6.974;2022-11-22T06:17:05;3.50;99.90
52513;DHT22;38422;53.172;6.974;2022-11-22T06:19:31;3.50;99.90
52513;DHT22;38422;53.172;6.974;2022-11-22T06:21:57;3.50;99.90
52513;DHT22;38422;53.172;6.974;2022-11-22T06:24:22;3.50;99.90
52513;DHT22;38422;53.172;6.974;2022-11-22T06:26:48;3.60;99.90
52513;DHT22;38422;53.172;6.974;2022-11-22T06:29:14;3.60;99.90
52513;DHT22;38422;53.172;6.974;2022-11-22T06:31:39;3.60;99.90
52513;DHT22;38422;53.172;6.974;2022-11-22T06:34:05;3.60;99.90
52513;DHT22;38422;53.172;6.974;2022-11-22T06:36:32;3.60;99.90
52513;DHT22;38422;53.172;6.974;2022-11-22T06:38:59;3.60;99.90
52513;DHT22;38422;53.172;6.974;2022-11-22T06:41:27;3.60;99.90
52513;DHT22;38422;53.172;6.974;2022-11-22T06:43:54;3.60;99.90
52513;DHT22;38422;53.172;6.974;2022-11-22T06:46:23;3.70;99.90
52513;DHT22;38422;53.172;6.974;2022-11-22T06:48:49;3.70;99.90
52513;DHT22;38422;53.172;6.974;2022-11-22T06:51:18;3.70;99.90
52513;DHT22;38422;53.172;6.974;2022-11-22T06:53:45;3.70;99.90
52513;DHT22;38422;53.172;6.974;2022-11-22T06:56:13;3.70;99.90
52513;DHT22;38422;53.172;6.974;2022-11-22T06:58:40;3.70;99.90
52513;DHT22;38422;53.172;6.974;2022-11-22T07:01:08;3.70;99.90
52513;DHT22;38422;53.172;6.974;2022-11-22T07:03:38;3.70;99.90
52513;DHT22;38422;53.172;6.974;2022-11-22T07:06:05;3.80;99.90
52513;DHT22;38422;53.172;6.974;2022-11-22T07:08:32;3.80;99.90
52513;DHT22;38422;53.172;6.974;2022-11-22T07:11:09;3.80;99.90
52513;DHT22;38422;53.172;6.974;2022-11-22T07:13:36;3.80;99.90
52513;DHT22;38422;53.172;6.974;2022-11-22T07:16:03;3.80;99.90
52513;DHT22;38422;53.172;6.974;2022-11-22T07:18:29;3.80;99.90
52513;DHT22;38422;53.172;6.974;2022-11-22T07:21:05;3.90;99.90
52513;DHT22;38422;53.172;6.974;2022-11-22T07:23:31;3.90;99.90
52513;DHT22;38422;53.172;6.974;2022-11-22T07:25:57;3.90;99.90
52513;DHT22;38422;53.172;6.974;2022-11-22T07:28:24;3.90;99.90
52513;DHT22;38422;53.172;6.974;2022-11-22T07:30:50;3.90;99.90
52513;DHT22;38422;53.172;6.974;2022-11-22T07:33:15;3.90;99.90
52513;DHT22;38422;53.172;6.974;2022-11-22T07:35:41;3.90;99.90
52513;DHT22;38422;53.172;6.974;2022-11-22T07:38:07;4.00;99.90
52513;DHT22;38422;53.172;6.974;2022-11-22T07:40:33;4.00;99.90
52513;DHT22;38422;53.172;6.974;2022-11-22T07:42:59;4.00;99.90
52513;DHT22;38422;53.172;6.974;2022-11-22T07:45:24;4.00;99.90
52513;DHT22;38422;53.172;6.974;2022-11-22T07:47:50;4.00;99.90
52513;DHT22;38422;53.172;6.974;2022-11-22T07:50:16;4.00;99.90
52513;DHT22;38422;53.172;6.974;2022-11-22T07:52:42;4.10;99.90
52513;DHT22;38422;53.172;6.974;2022-11-22T07:55:08;4.10;99.90
52513;DHT22;38422;53.172;6.974;2022-11-22T07:57:34;4.10;99.90
52513;DHT22;38422;53.172;6.974;2022-11-22T07:59:59;4.10;99.90
52513;DHT22;38422;53.172;6.974;2022-11-22T08:02:25;4.10;99.90
52513;DHT22;38422;53.172;6.974;2022-11-22T08:04:52;4.10;99.90
52513;DHT22;38422;53.172;6.974;2022-11-22T08:07:18;4.10;99.90
52513;DHT22;38422;53.172;6.974;2022-11-22T08:09:43;4.10;99.90
52513;DHT22;38422;53.172;6.974;2022-11-22T08:12:09;4.20;99.90
52513;DHT22;38422;53.172;6.974;2022-11-22T08:14:35;4.20;99.90
52513;DHT22;38422;53.172;6.974;2022-11-22T08:17:01;4.20;99.90
52513;DHT22;38422;53.172;6.974;2022-11-22T08:19:27;4.20;99.90
52513;DHT22;38422;53.172;6.974;2022-11-22T08:21:53;4.30;99.90
52513;DHT22;38422;53.172;6.974;2022-11-22T08:24:18;4.30;99.90
52513;DHT22;38422;53.172;6.974;2022-11-22T08:26:44;4.40;99.90
52513;DHT22;38422;53.172;6.974;2022-11-22T08:29:11;4.40;99.90
52513;DHT22;38422;53.172;6.974;2022-11-22T08:31:37;4.40;99.90
52513;DHT22;38422;53.172;6.974;2022-11-22T08:34:03;4.50;99.90
52513;DHT22;38422;53.172;6.974;2022-11-22T08:36:29;4.50;99.90
52513;DHT22;38422;53.172;6.974;2022-11-22T08:38:55;4.60;99.90
52513;DHT22;38422;53.172;6.974;2022-11-22T08:41:21;4.60;99.90
52513;DHT22;38422;53.172;6.974;2022-11-22T08:43:51;4.60;99.90
52513;DHT22;38422;53.172;6.974;2022-11-22T08:46:17;4.70;99.90
52513;DHT22;38422;53.172;6.974;2022-11-22T08:48:43;4.80;99.90
52513;DHT22;38422;53.172;6.974;2022-11-22T08:51:10;4.80;99.90
52513;DHT22;38422;53.172;6.974;2022-11-22T08:53:37;4.90;99.90
52513;DHT22;38422;53.172;6.974;2022-11-22T08:56:05;4.90;99.90
52513;DHT22;38422;53.172;6.974;2022-11-22T08:58:32;5.00;99.90
52513;DHT22;38422;53.172;6.974;2022-11-22T09:01:13;5.00;99.90
52513;DHT22;38422;53.172;6.974;2022-11-22T09:03:39;5.10;99.90
52513;DHT22;38422;53.172;6.974;2022-11-22T09:06:11;5.10;99.90
52513;DHT22;38422;53.172;6.974;2022-11-22T09:08:37;5.20;99.90
52513;DHT22;38422;53.172;6.974;2022-11-22T09:11:05;5.20;99.90
52513;DHT22;38422;53.172;6.974;2022-11-22T09:13:32;5.20;99.90
52513;DHT22;38422;53.172;6.974;2022-11-22T09:16:08;5.30;99.90
52513;DHT22;38422;53.172;6.974;2022-11-22T09:18:35;5.40;99.90
52513;DHT22;38422;53.172;6.974;2022-11-22T09:21:03;5.40;99.90
52513;DHT22;38422;53.172;6.974;2022-11-22T09:23:30;5.50;99.90
52513;DHT22;38422;53.172;6.974;2022-11-22T09:25:57;5.50;99.90
52513;DHT22;38422;53.172;6.974;2022-11-22T09:28:23;5.50;99.90
52513;DHT22;38422;53.172;6.974;2022-11-22T09:30:50;5.60;99.90
52513;DHT22;38422;53.172;6.974;2022-11-22T09:33:15;5.60;99.90
52513;DHT22;38422;53.172;6.974;2022-11-22T09:35:41;5.60;99.90
52513;DHT22;38422;53.172;6.974;2022-11-22T09:38:07;5.70;99.90
52513;DHT22;38422;53.172;6.974;2022-11-22T09:40:33;5.70;99.90
52513;DHT22;38422;53.172;6.974;2022-11-22T09:51:17;5.90;99.90
52513;DHT22;38422;53.172;6.974;2022-11-22T09:54:03;5.90;99.90
52513;DHT22;38422;53.172;6.974;2022-11-22T09:56:31;5.90;99.90
52513;DHT22;38422;53.172;6.974;2022-11-22T09:59:05;5.90;99.90
52513;DHT22;38422;53.172;6.974;2022-11-22T10:01:39;6.00;99.90
52513;DHT22;38422;53.172;6.974;2022-11-22T10:04:12;6.00;99.90
52513;DHT22;38422;53.172;6.974;2022-11-22T10:06:44;6.10;99.90
52513;DHT22;38422;53.172;6.974;2022-11-22T10:12:32;6.10;99.90
52513;DHT22;38422;53.172;6.974;2022-11-22T10:17:51;6.10;99.90
52513;DHT22;38422;53.172;6.974;2022-11-22T10:20:19;6.10;99.90
52513;DHT22;38422;53.172;6.974;2022-11-22T10:22:46;6.00;99.90
52513;DHT22;38422;53.172;6.974;2022-11-22T10:25:16;6.10;99.90
52513;DHT22;38422;53.172;6.974;2022-11-22T10:27:42;6.10;99.90
52513;DHT22;38422;53.172;6.974;2022-11-22T10:30:17;6.10;99.90
52513;DHT22;38422;53.172;6.974;2022-11-22T10:33:09;6.10;99.90
52513;DHT22;38422;53.172;6.974;2022-11-22T10:36:02;6.10;99.90
52513;DHT22;38422;53.172;6.974;2022-11-22T10:38:33;6.10;99.90
52513;DHT22;38422;53.172;6.974;2022-11-22T10:41:34;6.10;99.90
52513;DHT22;38422;53.172;6.974;2022-11-22T10:47:16;6.20;99.90
52513;DHT22;38422;53.172;6.974;2022-11-22T10:50:04;6.20;99.90
52513;DHT22;38422;53.172;6.974;2022-11-22T10:58:32;6.40;99.90
52513;DHT22;38422;53.172;6.974;2022-11-22T11:01:21;6.50;99.90
52513;DHT22;38422;53.172;6.974;2022-11-22T11:03:52;6.50;99.90
52513;DHT22;38422;53.172;6.974;2022-11-22T11:06:24;6.50;99.90
52513;DHT22;38422;53.172;6.974;2022-11-22T11:08:56;6.50;99.90
52513;DHT22;38422;53.172;6.974;2022-11-22T11:11:25;6.50;99.90
52513;DHT22;38422;53.172;6.974;2022-11-22T11:13:58;6.60;99.90
52513;DHT22;38422;53.172;6.974;2022-11-22T11:16:30;6.60;99.90
52513;DHT22;38422;53.172;6.974;2022-11-22T11:19:16;6.60;99.90
52513;DHT22;38422;53.172;6.974;2022-11-22T11:21:42;6.70;99.90
52513;DHT22;38422;53.172;6.974;2022-11-22T11:24:15;6.80;99.90
52513;DHT22;38422;53.172;6.974;2022-11-22T11:26:43;6.80;99.90
52513;DHT22;38422;53.172;6.974;2022-11-22T11:32:03;7.00;99.90
52513;DHT22;38422;53.172;6.974;2022-11-22T11:34:29;7.00;99.90
52513;DHT22;38422;53.172;6.974;2022-11-22T11:36:56;7.10;99.90
52513;DHT22;38422;53.172;6.974;2022-11-22T11:39:27;7.10;99.90
52513;DHT22;38422;53.172;6.974;2022-11-22T11:41:53;7.20;99.90
52513;DHT22;38422;53.172;6.974;2022-11-22T11:44:32;7.30;99.90
52513;DHT22;38422;53.172;6.974;2022-11-22T11:47:04;7.40;99.90
52513;DHT22;38422;53.172;6.974;2022-11-22T11:49:31;7.40;99.90
52513;DHT22;38422;53.172;6.974;2022-11-22T11:51:58;7.40;99.90
52513;DHT22;38422;53.172;6.974;2022-11-22T11:57:13;7.30;99.90
52513;DHT22;38422;53.172;6.974;2022-11-22T12:02:15;7.50;99.90
52513;DHT22;38422;53.172;6.974;2022-11-22T12:05:23;7.60;99.90
52513;DHT22;38422;53.172;6.974;2022-11-22T12:07:49;7.50;99.90
52513;DHT22;38422;53.172;6.974;2022-11-22T12:11:04;7.50;99.90
52513;DHT22;38422;53.172;6.974;2022-11-22T12:16:21;7.50;99.90
52513;DHT22;38422;53.172;6.974;2022-11-22T12:19:13;7.50;99.90
52513;DHT22;38422;53.172;6.974;2022-11-22T12:24:49;7.50;99.90
52513;DHT22;38422;53.172;6.974;2022-11-22T12:27:18;7.50;99.90
52513;DHT22;38422;53.172;6.974;2022-11-22T12:29:44;7.50;99.90
52513;DHT22;38422;53.172;6.974;2022-11-22T12:32:17;7.50;99.90
52513;DHT22;38422;53.172;6.974;2022-11-22T12:34:53;7.50;99.90
52513;DHT22;38422;53.172;6.974;2022-11-22T12:37:42;7.40;99.90
52513;DHT22;38422;53.172;6.974;2022-11-22T12:40:31;7.40;99.90
52513;DHT22;38422;53.172;6.974;2022-11-22T12:43:06;7.40;99.90
52513;DHT22;38422;53.172;6.974;2022-11-22T12:45:39;7.40;99.90
52513;DHT22;38422;53.172;6.974;2022-11-22T12:48:27;7.30;99.90
52513;DHT22;38422;53.172;6.974;2022-11-22T12:51:02;7.30;99.90
52513;DHT22;38422;53.172;6.974;2022-11-22T12:53:33;7.30;99.90
52513;DHT22;38422;53.172;6.974;2022-11-22T12:58:54;7.30;99.90
52513;DHT22;38422;53.172;6.974;2022-11-22T13:01:33;7.30;99.90
52513;DHT22;38422;53.172;6.974;2022-11-22T13:05:12;7.30;99.90
52513;DHT22;38422;53.172;6.974;2022-11-22T13:09:52;7.20;99.90
52513;DHT22;38422;53.172;6.974;2022-11-22T13:12:38;7.20;99.90
52513;DHT22;38422;53.172;6.974;2022-11-22T13:15:05;7.20;99.90
52513;DHT22;38422;53.172;6.974;2022-11-22T13:17:36;7.20;99.90
52513;DHT22;38422;53.172;6.974;2022-11-22T13:20:18;7.20;99.90
52513;DHT22;38422;53.172;6.974;2022-11-22T13:23:03;7.20;99.90
52513;DHT22;38422;53.172;6.974;2022-11-22T13:28:36;7.20;99.90
52513;DHT22;38422;53.172;6.974;2022-11-22T13:33:41;7.10;99.90
52513;DHT22;38422;53.172;6.974;2022-11-22T13:36:24;7.10;99.90
52513;DHT22;38422;53.172;6.974;2022-11-22T13:39:05;7.10;99.90
52513;DHT22;38422;53.172;6.974;2022-11-22T13:47:00;7.10;99.90
52513;DHT22;38422;53.172;6.974;2022-11-22T13:49:41;7.10;99.90
52513;DHT22;38422;53.172;6.974;2022-11-22T13:57:39;7.10;99.90
52513;DHT22;38422;53.172;6.974;2022-11-22T14:02:41;7.10;99.90
52513;DHT22;38422;53.172;6.974;2022-11-22T14:05:35;7.10;99.90
52513;DHT22;38422;53.172;6.974;2022-11-22T14:08:02;7.10;99.90
52513;DHT22;38422;53.172;6.974;2022-11-22T14:10:30;7.10;99.90
52513;DHT22;38422;53.172;6.974;2022-11-22T14:24:55;7.10;99.90
52513;DHT22;38422;53.172;6.974;2022-11-22T14:30:17;7.00;99.90
52513;DHT22;38422;53.172;6.974;2022-11-22T14:32:54;7.00;99.90
52513;DHT22;38422;53.172;6.974;2022-11-22T14:35:23;7.00;99.90
52513;DHT22;38422;53.172;6.974;2022-11-22T14:40:40;7.00;99.90
52513;DHT22;38422;53.172;6.974;2022-11-22T14:43:25;7.00;99.90
52513;DHT22;38422;53.172;6.974;2022-11-22T14:45:55;7.00;99.90
52513;DHT22;38422;53.172;6.974;2022-11-22T14:48:32;7.00;99.90
52513;DHT22;38422;53.172;6.974;2022-11-22T14:53:53;6.90;99.90
52513;DHT22;38422;53.172;6.974;2022-11-22T14:56:26;6.90;99.90
52513;DHT22;38422;53.172;6.974;2022-11-22T15:02:18;6.90;99.90
52513;DHT22;38422;53.172;6.974;2022-11-22T15:04:58;6.90;99.90
52513;DHT22;38422;53.172;6.974;2022-11-22T15:07:39;6.90;99.90
52513;DHT22;38422;53.172;6.974;2022-11-22T15:13:14;6.90;99.90
52513;DHT22;38422;53.172;6.974;2022-11-22T15:15:45;6.90;99.90
52513;DHT22;38422;53.172;6.974;2022-11-22T15:20:43;6.90;99.90
52513;DHT22;38422;53.172;6.974;2022-11-22T15:25:43;6.90;99.90
52513;DHT22;38422;53.172;6.974;2022-11-22T15:28:18;6.80;99.90
52513;DHT22;38422;53.172;6.974;2022-11-22T15:30:45;6.80;99.90
52513;DHT22;38422;53.172;6.974;2022-11-22T15:38:59;6.80;99.90
52513;DHT22;38422;53.172;6.974;2022-11-22T15:41:28;6.80;99.90
52513;DHT22;38422;53.172;6.974;2022-11-22T15:43:55;6.80;99.90
52513;DHT22;38422;53.172;6.974;2022-11-22T15:46:22;6.80;99.90
52513;DHT22;38422;53.172;6.974;2022-11-22T15:48:52;6.80;99.90
52513;DHT22;38422;53.172;6.974;2022-11-22T15:51:19;6.80;99.90
52513;DHT22;38422;53.172;6.974;2022-11-22T15:59:09;6.70;99.90
52513;DHT22;38422;53.172;6.974;2022-11-22T16:01:39;6.70;99.90
52513;DHT22;38422;53.172;6.974;2022-11-22T16:04:47;6.70;99.90
52513;DHT22;38422;53.172;6.974;2022-11-22T16:08:13;6.70;99.90
52513;DHT22;38422;53.172;6.974;2022-11-22T16:10:23;6.70;99.90
52513;DHT22;38422;53.172;6.974;2022-11-22T16:12:50;6.70;99.90
52513;DHT22;38422;53.172;6.974;2022-11-22T16:15:31;6.70;99.90
52513;DHT22;38422;53.172;6.974;2022-11-22T16:18:13;6.70;99.90
52513;DHT22;38422;53.172;6.974;2022-11-22T16:20:41;6.60;99.90
52513;DHT22;38422;53.172;6.974;2022-11-22T16:25:41;6.60;99.90
52513;DHT22;38422;53.172;6.974;2022-11-22T16:28:30;6.60;99.90
52513;DHT22;38422;53.172;6.974;2022-11-22T16:30:59;6.60;99.90
52513;DHT22;38422;53.172;6.974;2022-11-22T16:33:25;6.60;99.90
52513;DHT22;38422;53.172;6.974;2022-11-22T16:35:56;6.60;99.90
52513;DHT22;38422;53.172;6.974;2022-11-22T16:38:23;6.60;99.90
52513;DHT22;38422;53.172;6.974;2022-11-22T16:40:50;6.60;99.90
52513;DHT22;38422;53.172;6.974;2022-11-22T16:43:18;6.60;99.90
52513;DHT22;38422;53.172;6.974;2022-11-22T16:45:44;6.60;99.90
52513;DHT22;38422;53.172;6.974;2022-11-22T16:48:17;6.60;99.90
52513;DHT22;38422;53.172;6.974;2022-11-22T16:50:43;6.60;99.90
52513;DHT22;38422;53.172;6.974;2022-11-22T16:53:11;6.60;99.90
52513;DHT22;38422;53.172;6.974;2022-11-22T16:55:38;6.60;99.90
52513;DHT22;38422;53.172;6.974;2022-11-22T16:58:19;6.60;99.90
52513;DHT22;38422;53.172;6.974;2022-11-22T17:00:45;6.60;99.90
52513;DHT22;38422;53.172;6.974;2022-11-22T17:03:26;6.60;99.90
52513;DHT22;38422;53.172;6.974;2022-11-22T17:05:54;6.70;99.90
52513;DHT22;38422;53.172;6.974;2022-11-22T17:08:19;6.70;99.90
52513;DHT22;38422;53.172;6.974;2022-11-22T17:10:49;6.70;99.90
52513;DHT22;38422;53.172;6.974;2022-11-22T17:13:24;6.60;99.90
52513;DHT22;38422;53.172;6.974;2022-11-22T17:15:59;6.60;99.90
52513;DHT22;38422;53.172;6.974;2022-11-22T17:18:30;6.60;99.90
52513;DHT22;38422;53.172;6.974;2022-11-22T17:20:59;6.60;99.90
52513;DHT22;38422;53.172;6.974;2022-11-22T17:23:29;6.60;99.90
52513;DHT22;38422;53.172;6.974;2022-11-22T17:25:56;6.60;99.90
52513;DHT22;38422;53.172;6.974;2022-11-22T17:28:22;6.60;99.90
52513;DHT22;38422;53.172;6.974;2022-11-22T17:30:48;6.60;99.90
52513;DHT22;38422;53.172;6.974;2022-11-22T17:33:13;6.60;99.90
52513;DHT22;38422;53.172;6.974;2022-11-22T17:35:39;6.70;99.90
52513;DHT22;38422;53.172;6.974;2022-11-22T17:38:07;6.60;99.90
52513;DHT22;38422;53.172;6.974;2022-11-22T17:40:33;6.60;99.90
52513;DHT22;38422;53.172;6.974;2022-11-22T17:42:58;6.70;99.90
52513;DHT22;38422;53.172;6.974;2022-11-22T17:45:26;6.60;99.90
52513;DHT22;38422;53.172;6.974;2022-11-22T17:47:51;6.60;99.90
52513;DHT22;38422;53.172;6.974;2022-11-22T17:50:17;6.70;99.90
52513;DHT22;38422;53.172;6.974;2022-11-22T17:52:43;6.70;99.90
52513;DHT22;38422;53.172;6.974;2022-11-22T17:55:09;6.70;99.90